Time;durP1;ratioP1;P1;durP2;ratioP2;P2;SDS_P1;SDS_P2;PMS_P1;PMS_P2;Temp;Humidity;BMP_temperature;BMP_pressure;BME280_temperature;BME280_humidity;BME280_pressure;Samples;Min_cycle;Max_cycle;Signal;HPM_P1;HPM_P2
2021/07/20 00:01:14;;;;;;;27.85;20.13;;;18.60;99.90;;;;;;5012325;28;20030;-69
2021/07/20 00:03:39;;;;;;;23.55;19.17;;;18.50;99.90;;;;;;5013533;28;20030;-69
2021/07/20 00:06:05;;;;;;;28.55;19.85;;;18.50;99.90;;;;;;5012203;28;20030;-67
2021/07/20 00:08:31;;;;;;;29.55;20.00;;;18.40;99.90;;;;;;5013173;28;20420;-69
2021/07/20 00:11:00;;;;;;;26.60;19.50;;;18.40;99.90;;;;;;5013448;28;20362;-69
2021/07/20 00:13:26;;;;;;;27.15;20.77;;;18.30;99.90;;;;;;4995422;28;20065;-70
2021/07/20 00:15:54;;;;;;;29.63;20.10;;;18.30;99.90;;;;;;5012319;28;20504;-69
2021/07/20 00:18:29;;;;;;;27.40;20.02;;;18.20;99.90;;;;;;5014454;28;20045;-69
2021/07/20 00:20:56;;;;;;;30.50;20.60;;;18.10;99.90;;;;;;4994461;28;20737;-69
2021/07/20 00:23:23;;;;;;;25.88;19.38;;;18.00;99.90;;;;;;4993504;28;20031;-69
2021/07/20 00:25:50;;;;;;;32.15;22.17;;;18.00;99.90;;;;;;4993364;28;20031;-68
2021/07/20 00:28:17;;;;;;;28.80;20.85;;;17.90;99.90;;;;;;4992966;28;20049;-68
2021/07/20 00:30:43;;;;;;;28.52;20.25;;;17.90;99.90;;;;;;5006100;28;20168;-69
2021/07/20 00:33:09;;;;;;;34.83;21.50;;;17.80;99.90;;;;;;5012744;28;20484;-69
2021/07/20 00:35:35;;;;;;;42.30;23.92;;;17.80;99.90;;;;;;5011896;28;20041;-70
2021/07/20 00:38:01;;;;;;;36.10;22.77;;;17.80;99.90;;;;;;5013466;28;20507;-69
2021/07/20 00:40:27;;;;;;;31.20;20.33;;;17.70;99.90;;;;;;5022799;28;20032;-69
2021/07/20 00:42:54;;;;;;;28.92;21.33;;;17.70;99.90;;;;;;5021405;28;20053;-68
2021/07/20 00:45:20;;;;;;;27.67;20.40;;;17.60;99.90;;;;;;5021715;28;20022;-68
2021/07/20 00:47:46;;;;;;;28.02;20.10;;;17.60;99.90;;;;;;5021035;28;20022;-68
2021/07/20 00:50:14;;;;;;;32.72;20.48;;;17.50;99.90;;;;;;5020267;28;20440;-69
2021/07/20 00:52:40;;;;;;;30.48;20.88;;;17.60;99.90;;;;;;5023751;28;20276;-69
2021/07/20 00:55:08;;;;;;;35.08;21.00;;;17.50;99.90;;;;;;5011631;28;20498;-69
2021/07/20 00:57:34;;;;;;;29.17;20.77;;;17.50;99.90;;;;;;4994236;28;20480;-69
2021/07/20 01:00:00;;;;;;;26.23;19.30;;;17.40;99.90;;;;;;5013765;28;20026;-69
2021/07/20 01:02:26;;;;;;;29.02;19.77;;;17.40;99.90;;;;;;5015658;28;20041;-70
2021/07/20 01:04:53;;;;;;;26.95;21.38;;;17.40;99.90;;;;;;5013560;28;20033;-69
2021/07/20 01:07:20;;;;;;;29.02;20.63;;;17.40;99.90;;;;;;4998931;28;20633;-69
2021/07/20 01:09:47;;;;;;;30.83;21.80;;;17.40;99.90;;;;;;4996086;28;20026;-69
2021/07/20 01:12:14;;;;;;;27.25;19.58;;;17.30;99.90;;;;;;4995863;28;20038;-69
2021/07/20 01:14:42;;;;;;;26.73;20.30;;;17.30;99.90;;;;;;4995517;28;20484;-69
2021/07/20 01:17:10;;;;;;;28.63;20.55;;;17.30;99.90;;;;;;5015081;28;20018;-70
2021/07/20 01:19:37;;;;;;;27.58;20.08;;;17.30;99.90;;;;;;5015440;28;20037;-69
2021/07/20 01:22:04;;;;;;;29.85;21.92;;;17.30;99.90;;;;;;5015447;28;20053;-69
2021/07/20 01:24:30;;;;;;;29.80;21.48;;;17.40;99.90;;;;;;5014562;28;20471;-70
2021/07/20 01:26:56;;;;;;;31.77;21.77;;;17.30;99.90;;;;;;5015034;28;20068;-69
2021/07/20 01:29:23;;;;;;;32.58;22.40;;;17.30;99.90;;;;;;5015212;28;20069;-69
2021/07/20 01:31:51;;;;;;;29.92;21.23;;;17.20;99.90;;;;;;5013816;28;20128;-69
2021/07/20 01:34:18;;;;;;;28.55;22.15;;;17.00;99.90;;;;;;4997023;28;20037;-70
2021/07/20 01:36:47;;;;;;;30.08;21.60;;;16.90;99.90;;;;;;5014919;28;20025;-69
2021/07/20 01:39:13;;;;;;;33.72;23.08;;;16.90;99.90;;;;;;5015080;28;20088;-69
2021/07/20 01:41:41;;;;;;;33.00;23.45;;;16.80;99.90;;;;;;5015001;28;20077;-70
2021/07/20 01:44:11;;;;;;;32.70;23.25;;;16.80;99.90;;;;;;5014910;28;20049;-69
2021/07/20 01:46:39;;;;;;;34.45;23.05;;;16.80;99.90;;;;;;5014012;28;20060;-69
2021/07/20 01:49:08;;;;;;;33.10;23.50;;;16.70;99.90;;;;;;5014981;28;20037;-69
2021/07/20 01:51:35;;;;;;;32.22;22.17;;;16.60;99.90;;;;;;5014759;28;20030;-69
2021/07/20 01:54:01;;;;;;;31.48;23.35;;;16.60;99.90;;;;;;5014787;28;20044;-69
2021/07/20 01:56:27;;;;;;;31.35;22.73;;;16.60;99.90;;;;;;5013872;28;20038;-69
2021/07/20 01:58:53;;;;;;;33.58;22.70;;;16.50;99.90;;;;;;5014364;28;20028;-69
2021/07/20 02:01:42;;;;;;;32.38;23.35;;;16.40;99.90;;;;;;5014368;28;20028;-69
2021/07/20 02:09:26;;;;;;;37.65;24.60;;;16.40;99.90;;;;;;5014537;28;20069;-70
2021/07/20 02:11:55;;;;;;;33.90;22.48;;;16.30;99.90;;;;;;5013155;28;20030;-68
2021/07/20 02:14:24;;;;;;;30.45;22.90;;;16.20;99.90;;;;;;5013817;28;20033;-68
2021/07/20 02:16:51;;;;;;;29.73;23.92;;;16.20;99.90;;;;;;5013608;28;20096;-68
2021/07/20 02:19:27;;;;;;;37.50;25.48;;;16.10;99.90;;;;;;5014202;28;20017;-68
2021/07/20 02:21:56;;;;;;;34.10;24.25;;;16.10;99.90;;;;;;5013937;28;20026;-68
2021/07/20 02:24:26;;;;;;;33.10;24.08;;;16.10;99.90;;;;;;5013487;28;20448;-68
2021/07/20 02:26:54;;;;;;;34.20;23.83;;;16.10;99.90;;;;;;5014196;28;20423;-68
2021/07/20 02:29:22;;;;;;;32.08;23.33;;;16.00;99.90;;;;;;5013804;28;20026;-69
2021/07/20 02:31:51;;;;;;;37.17;23.60;;;16.00;99.90;;;;;;5013909;28;20511;-69
2021/07/20 02:34:18;;;;;;;31.38;23.83;;;15.90;99.90;;;;;;5019180;28;20025;-69
2021/07/20 02:36:44;;;;;;;33.20;25.10;;;15.90;99.90;;;;;;5014130;28;20037;-72
2021/07/20 02:39:13;;;;;;;33.53;25.02;;;15.80;99.90;;;;;;5013877;28;20029;-72
2021/07/20 02:41:41;;;;;;;37.65;25.27;;;15.60;99.90;;;;;;4995173;28;20015;-72
2021/07/20 02:44:07;;;;;;;36.03;25.00;;;15.60;99.90;;;;;;4982502;28;20023;-72
2021/07/20 02:46:36;;;;;;;36.15;25.58;;;15.60;99.90;;;;;;4981460;28;20420;-72
2021/07/20 02:49:02;;;;;;;33.42;23.05;;;15.60;99.90;;;;;;4983976;28;20034;-71
2021/07/20 02:51:28;;;;;;;35.33;24.25;;;15.50;99.90;;;;;;4982145;28;20014;-71
2021/07/20 02:53:58;;;;;;;42.97;25.90;;;15.50;99.90;;;;;;4986074;28;20106;-72
2021/07/20 02:56:25;;;;;;;39.42;26.67;;;15.50;99.90;;;;;;4982768;28;20105;-72
2021/07/20 02:58:53;;;;;;;36.13;24.58;;;15.50;99.90;;;;;;4982152;28;20501;-73
2021/07/20 03:01:20;;;;;;;35.33;25.33;;;15.50;99.90;;;;;;4981026;28;20027;-73
2021/07/20 03:03:46;;;;;;;37.25;25.80;;;15.50;99.90;;;;;;4982938;28;20202;-72
2021/07/20 03:06:13;;;;;;;38.40;26.73;;;15.50;99.90;;;;;;4980945;28;20019;-72
2021/07/20 03:08:41;;;;;;;38.08;25.38;;;15.60;99.90;;;;;;4984020;28;20022;-73
2021/07/20 03:11:12;;;;;;;38.80;25.98;;;15.50;99.90;;;;;;4986425;28;20084;-75
2021/07/20 03:13:41;;;;;;;36.75;25.60;;;15.40;99.90;;;;;;4990970;28;20030;-72
2021/07/20 03:16:09;;;;;;;41.05;26.17;;;15.50;99.90;;;;;;4979815;28;20126;-73
2021/07/20 03:18:37;;;;;;;37.28;26.30;;;15.40;99.90;;;;;;4981357;28;20025;-70
2021/07/20 03:21:04;;;;;;;36.72;25.48;;;15.40;99.90;;;;;;4993314;28;20095;-74
2021/07/20 03:23:31;;;;;;;34.13;24.48;;;15.40;99.90;;;;;;5039197;23;20420;-75
2021/07/20 03:25:58;;;;;;;36.78;24.60;;;15.40;99.90;;;;;;4991546;28;20025;-73
2021/07/20 03:28:25;;;;;;;33.42;25.10;;;15.40;99.90;;;;;;4993615;28;20033;-72
2021/07/20 03:30:53;;;;;;;36.58;24.20;;;15.40;99.90;;;;;;4993590;28;20041;-73
2021/07/20 03:33:21;;;;;;;38.17;25.00;;;15.50;99.90;;;;;;4993465;28;20085;-73
2021/07/20 03:35:49;;;;;;;33.05;23.38;;;15.50;99.90;;;;;;4992721;28;20041;-72
2021/07/20 03:38:17;;;;;;;41.15;26.38;;;15.50;99.90;;;;;;4992928;28;20038;-73
2021/07/20 03:40:44;;;;;;;38.45;26.35;;;15.50;99.90;;;;;;4993034;28;20026;-74
2021/07/20 03:43:10;;;;;;;35.40;26.38;;;15.40;99.90;;;;;;4993278;28;20018;-73
2021/07/20 03:45:36;;;;;;;36.95;24.75;;;15.40;99.90;;;;;;4992601;28;20381;-73
2021/07/20 03:48:02;;;;;;;38.47;26.25;;;15.30;99.90;;;;;;4992549;28;20041;-73
2021/07/20 03:50:29;;;;;;;39.83;26.88;;;15.30;99.90;;;;;;4992874;28;20124;-74
2021/07/20 03:52:55;;;;;;;38.67;27.30;;;15.20;99.90;;;;;;4990682;28;20032;-72
2021/07/20 03:55:21;;;;;;;45.15;28.30;;;15.20;99.90;;;;;;5005192;28;20481;-73
2021/07/20 03:57:47;;;;;;;41.58;27.30;;;15.10;99.90;;;;;;4982976;28;20076;-72
2021/07/20 04:00:15;;;;;;;42.50;27.98;;;15.30;99.90;;;;;;5011787;28;20032;-72
2021/07/20 04:05:38;;;;;;;39.50;26.33;;;15.40;99.90;;;;;;4995303;28;20399;-73
2021/07/20 04:08:08;;;;;;;40.85;26.58;;;15.50;99.90;;;;;;5012358;28;20052;-73
2021/07/20 04:10:34;;;;;;;36.60;25.63;;;15.60;99.90;;;;;;5007705;28;20054;-73
2021/07/20 04:13:00;;;;;;;42.97;26.65;;;15.70;99.90;;;;;;4992171;28;20030;-72
2021/07/20 04:15:26;;;;;;;39.58;25.40;;;15.70;99.90;;;;;;4990243;28;20031;-70
2021/07/20 04:17:52;;;;;;;38.55;25.48;;;15.70;99.90;;;;;;4992130;28;20117;-71
2021/07/20 04:20:18;;;;;;;37.67;26.13;;;15.80;99.90;;;;;;4992326;28;20447;-70
2021/07/20 04:22:44;;;;;;;36.70;24.38;;;15.90;99.90;;;;;;5001203;28;20049;-71
2021/07/20 04:25:11;;;;;;;34.10;25.95;;;16.00;99.90;;;;;;4979422;28;20026;-73
2021/07/20 04:27:38;;;;;;;38.35;26.10;;;16.00;99.90;;;;;;4992515;28;20037;-73
2021/07/20 04:30:07;;;;;;;33.85;24.98;;;16.00;99.90;;;;;;4992265;28;20026;-72
2021/07/20 04:32:33;;;;;;;37.60;25.75;;;16.10;99.90;;;;;;4992320;28;20785;-72
2021/07/20 04:34:59;;;;;;;35.50;26.45;;;16.20;99.90;;;;;;4989843;28;20030;-71
2021/07/20 04:37:26;;;;;;;32.90;24.45;;;16.30;99.90;;;;;;4992498;28;20034;-72
2021/07/20 04:39:54;;;;;;;34.75;25.15;;;16.30;99.90;;;;;;4991874;28;20030;-72
2021/07/20 04:42:20;;;;;;;36.00;24.83;;;16.40;99.90;;;;;;4991715;28;20022;-72
2021/07/20 04:44:45;;;;;;;38.20;24.90;;;16.50;99.90;;;;;;4991071;28;20026;-72
2021/07/20 04:47:11;;;;;;;36.95;24.42;;;16.50;99.90;;;;;;4997419;28;20030;-72
2021/07/20 04:49:38;;;;;;;36.72;24.63;;;16.60;99.90;;;;;;5011562;28;20128;-73
2021/07/20 04:52:06;;;;;;;34.55;25.02;;;16.70;99.90;;;;;;5004490;28;20369;-72
2021/07/20 04:54:33;;;;;;;33.67;24.52;;;16.70;99.90;;;;;;4973363;28;20060;-72
2021/07/20 04:56:59;;;;;;;37.85;25.27;;;16.80;99.90;;;;;;4996823;28;20557;-73
2021/07/20 04:59:25;;;;;;;36.95;24.88;;;16.80;99.90;;;;;;4992349;28;20491;-71
2021/07/20 05:01:51;;;;;;;31.77;23.50;;;16.80;99.90;;;;;;4992105;28;20106;-71
2021/07/20 05:04:18;;;;;;;32.35;23.85;;;16.80;99.90;;;;;;4991462;28;20034;-71
2021/07/20 05:06:47;;;;;;;33.13;23.00;;;16.80;99.90;;;;;;4998656;28;20031;-70
2021/07/20 05:09:13;;;;;;;33.08;23.13;;;16.70;99.90;;;;;;4988161;28;20030;-71
2021/07/20 05:11:39;;;;;;;33.35;24.60;;;16.80;99.90;;;;;;5003080;28;20495;-71
2021/07/20 05:14:07;;;;;;;34.35;23.40;;;16.80;99.90;;;;;;4992718;28;20031;-71
2021/07/20 05:16:34;;;;;;;35.25;24.83;;;16.70;99.90;;;;;;4991864;28;20045;-70
2021/07/20 05:19:01;;;;;;;33.05;24.10;;;16.80;99.90;;;;;;4991728;28;20531;-72
2021/07/20 05:21:29;;;;;;;33.72;24.02;;;16.80;99.90;;;;;;4991754;28;20081;-70
2021/07/20 05:23:54;;;;;;;36.35;24.30;;;16.80;99.90;;;;;;4991294;28;20022;-69
2021/07/20 05:26:21;;;;;;;34.67;24.05;;;16.80;99.90;;;;;;4990638;28;20033;-68
2021/07/20 05:28:47;;;;;;;31.95;24.67;;;16.90;99.90;;;;;;4999470;28;20492;-68
2021/07/20 05:31:15;;;;;;;36.20;24.58;;;16.90;99.90;;;;;;5008155;28;20112;-69
2021/07/20 05:33:42;;;;;;;31.83;22.95;;;16.90;99.90;;;;;;4991800;28;20057;-69
2021/07/20 05:36:09;;;;;;;27.23;21.90;;;16.90;99.90;;;;;;4990912;28;20057;-69
2021/07/20 05:38:35;;;;;;;32.28;23.75;;;16.90;99.90;;;;;;4991367;28;20061;-68
2021/07/20 05:41:01;;;;;;;35.08;23.08;;;16.80;99.90;;;;;;4990917;28;20447;-69
2021/07/20 05:43:29;;;;;;;35.88;22.33;;;16.90;99.90;;;;;;4991005;28;20031;-70
2021/07/20 05:45:58;;;;;;;35.20;21.52;;;16.80;99.90;;;;;;4974351;28;20026;-69
2021/07/20 05:48:25;;;;;;;28.98;20.27;;;16.90;99.90;;;;;;4992401;28;20466;-69
2021/07/20 05:50:53;;;;;;;26.00;18.50;;;16.80;99.90;;;;;;5014508;28;20030;-69
2021/07/20 05:53:25;;;;;;;25.83;18.30;;;16.80;99.90;;;;;;5013789;28;20080;-68
2021/07/20 05:55:53;;;;;;;37.70;21.92;;;16.80;99.90;;;;;;5012453;28;20546;-70
2021/07/20 05:58:20;;;;;;;47.60;24.20;;;16.70;99.90;;;;;;5013817;28;20104;-70
2021/07/20 06:00:48;;;;;;;34.47;21.30;;;16.80;99.90;;;;;;4996725;28;20038;-69
2021/07/20 06:03:22;;;;;;;31.35;21.55;;;16.90;99.90;;;;;;4994999;28;20022;-69
2021/07/20 06:05:50;;;;;;;31.85;22.38;;;16.90;99.90;;;;;;4996938;28;20492;-69
2021/07/20 06:08:16;;;;;;;28.02;21.48;;;16.80;99.90;;;;;;5013979;28;20037;-69
2021/07/20 06:10:50;;;;;;;31.48;20.50;;;16.90;99.90;;;;;;4996003;28;20049;-69
2021/07/20 06:13:16;;;;;;;34.72;22.85;;;16.90;99.90;;;;;;4994484;28;20033;-69
2021/07/20 06:15:47;;;;;;;37.03;21.23;;;17.10;99.90;;;;;;4993555;28;20031;-70
2021/07/20 06:18:13;;;;;;;30.00;21.05;;;17.20;99.90;;;;;;4995714;28;20037;-69
2021/07/20 06:20:47;;;;;;;35.88;21.20;;;17.30;99.90;;;;;;5003452;28;20030;-69
2021/07/20 06:23:14;;;;;;;34.00;21.10;;;17.10;99.90;;;;;;5005690;28;20022;-68
2021/07/20 06:25:41;;;;;;;28.35;21.23;;;17.00;99.90;;;;;;4993226;28;20026;-69
2021/07/20 06:28:07;;;;;;;36.97;23.38;;;17.20;99.90;;;;;;4993986;28;20034;-69
2021/07/20 06:30:34;;;;;;;35.78;21.77;;;17.50;99.90;;;;;;4993910;28;20108;-69
2021/07/20 06:33:00;;;;;;;37.60;22.27;;;17.60;99.90;;;;;;4994199;28;20104;-69
2021/07/20 06:35:26;;;;;;;33.90;21.30;;;17.70;99.90;;;;;;5005061;28;20509;-69
2021/07/20 06:37:52;;;;;;;31.63;20.45;;;17.90;99.90;;;;;;4995587;28;20113;-70
2021/07/20 06:40:19;;;;;;;31.85;20.92;;;17.80;99.90;;;;;;4993371;28;20033;-70
2021/07/20 06:42:47;;;;;;;29.52;21.38;;;17.60;99.90;;;;;;4993599;28;20076;-68
2021/07/20 06:45:14;;;;;;;27.85;20.63;;;17.50;99.90;;;;;;4992236;28;20668;-69
2021/07/20 06:47:42;;;;;;;27.05;19.17;;;17.70;99.90;;;;;;4993768;28;20037;-69
2021/07/20 06:50:09;;;;;;;27.50;18.40;;;17.90;99.90;;;;;;4993393;28;20033;-69
2021/07/20 06:52:36;;;;;;;27.40;16.25;;;17.90;99.90;;;;;;4975906;28;20511;-70
2021/07/20 06:55:02;;;;;;;24.30;15.65;;;18.00;99.90;;;;;;4992626;28;20041;-70
2021/07/20 06:57:30;;;;;;;22.15;15.80;;;18.00;99.90;;;;;;4992898;28;20031;-69
2021/07/20 06:59:58;;;;;;;24.92;16.05;;;18.00;99.90;;;;;;4993455;28;20098;-69
2021/07/20 07:02:26;;;;;;;24.48;15.60;;;18.40;99.90;;;;;;4993565;28;20022;-69
2021/07/20 07:05:12;;;;;;;19.95;14.75;;;18.70;99.90;;;;;;4992245;28;20354;-70
2021/07/20 07:07:38;;;;;;;22.67;14.80;;;18.50;99.90;;;;;;4993632;28;20022;-70
2021/07/20 07:10:09;;;;;;;25.70;14.90;;;18.60;99.90;;;;;;4996105;28;20031;-68
2021/07/20 07:12:36;;;;;;;22.27;14.85;;;18.50;99.90;;;;;;5006485;28;20105;-69
2021/07/20 07:15:04;;;;;;;22.52;15.48;;;18.30;99.90;;;;;;5011887;28;20125;-69
2021/07/20 07:17:31;;;;;;;20.45;14.18;;;18.60;99.90;;;;;;5009300;28;20030;-69
2021/07/20 07:19:58;;;;;;;20.65;13.98;;;18.80;99.90;;;;;;5012951;28;20064;-69
2021/07/20 07:22:25;;;;;;;17.75;14.20;;;18.90;99.90;;;;;;5012597;28;20129;-69
2021/07/20 07:24:53;;;;;;;23.48;15.70;;;19.10;99.90;;;;;;5011427;28;20116;-69
2021/07/20 07:27:20;;;;;;;19.75;14.70;;;18.90;99.90;;;;;;4992456;28;20536;-70
2021/07/20 07:29:50;;;;;;;22.73;14.70;;;19.10;99.90;;;;;;4992800;28;20022;-70
2021/07/20 07:32:15;;;;;;;22.30;14.38;;;19.30;99.90;;;;;;4993004;28;20033;-68
2021/07/20 07:34:42;;;;;;;19.23;14.82;;;19.30;99.90;;;;;;4995470;28;20439;-68
2021/07/20 07:37:08;;;;;;;18.90;13.80;;;19.40;99.90;;;;;;4993129;28;20026;-69
2021/07/20 07:39:36;;;;;;;21.08;14.75;;;19.70;99.90;;;;;;4992886;28;20030;-69
2021/07/20 07:42:03;;;;;;;21.08;14.40;;;20.00;99.90;;;;;;4992777;28;20029;-68
2021/07/20 07:44:30;;;;;;;22.05;14.23;;;20.00;99.90;;;;;;4991857;28;20075;-69
2021/07/20 07:46:58;;;;;;;19.67;14.10;;;20.00;99.90;;;;;;4992781;28;20110;-70
2021/07/20 07:49:26;;;;;;;20.08;13.98;;;19.90;99.90;;;;;;4992268;28;20030;-69
2021/07/20 07:51:52;;;;;;;18.52;13.57;;;20.20;99.90;;;;;;4993284;28;20097;-70
2021/07/20 07:54:19;;;;;;;19.98;14.27;;;20.40;99.90;;;;;;4991787;28;20037;-70
2021/07/20 07:56:46;;;;;;;17.85;13.30;;;20.50;99.90;;;;;;4992829;28;20038;-69
2021/07/20 07:59:15;;;;;;;21.50;13.27;;;20.70;99.90;;;;;;4974919;28;20097;-69
2021/07/20 08:01:48;;;;;;;22.27;14.05;;;20.70;99.90;;;;;;4992968;28;20034;-70
2021/07/20 08:04:17;;;;;;;22.20;13.88;;;21.20;99.90;;;;;;4992789;28;20034;-70
2021/07/20 08:06:45;;;;;;;19.50;12.82;;;21.00;99.90;;;;;;4992677;28;20026;-70
2021/07/20 08:09:12;;;;;;;23.10;13.38;;;20.90;99.90;;;;;;4992596;28;20072;-70
2021/07/20 08:11:41;;;;;;;16.02;11.82;;;21.00;99.90;;;;;;4997450;28;20022;-70
2021/07/20 08:14:07;;;;;;;15.77;11.93;;;20.80;99.90;;;;;;5012351;28;20029;-70
2021/07/20 08:16:39;;;;;;;18.45;12.52;;;21.00;99.90;;;;;;5011345;28;20017;-69
2021/07/20 08:19:05;;;;;;;16.83;12.20;;;20.90;99.90;;;;;;5012033;28;20045;-70
2021/07/20 08:21:31;;;;;;;18.02;12.43;;;20.70;99.90;;;;;;5010570;28;20297;-69
2021/07/20 08:23:57;;;;;;;15.88;10.95;;;20.80;99.90;;;;;;5008530;28;20065;-69
2021/07/20 08:26:26;;;;;;;20.02;12.02;;;21.10;99.90;;;;;;4991694;28;20034;-71
2021/07/20 08:29:08;;;;;;;19.13;12.18;;;21.40;99.90;;;;;;4992254;28;20035;-69
2021/07/20 08:31:39;;;;;;;;;;;21.30;99.90;;;;;;4992268;28;20030;-70
2021/07/20 08:34:06;;;;;;;16.83;11.52;;;21.40;99.90;;;;;;4992232;28;19906;-71
2021/07/20 08:36:38;;;;;;;16.60;11.40;;;22.00;99.90;;;;;;4991271;28;20152;-72
2021/07/20 08:39:07;;;;;;;13.88;10.30;;;22.30;99.90;;;;;;4992164;28;20019;-68
2021/07/20 08:41:40;;;;;;;15.30;11.13;;;22.90;99.90;;;;;;4992137;28;20041;-68
2021/07/20 08:44:31;;;;;;;13.73;10.50;;;22.80;99.90;;;;;;4992224;28;20388;-69
2021/07/20 08:47:02;;;;;;;13.52;11.65;;;22.40;99.90;;;;;;4992123;28;20101;-70
2021/07/20 08:49:52;;;;;;;13.38;10.70;;;22.80;99.90;;;;;;4991952;28;20041;-69
2021/07/20 08:52:26;;;;;;;18.23;11.73;;;23.60;99.90;;;;;;4991685;28;20031;-68
2021/07/20 08:54:57;;;;;;;13.77;10.80;;;23.70;99.90;;;;;;4991289;28;20491;-68
2021/07/20 08:57:50;;;;;;;17.65;9.52;;;24.10;99.90;;;;;;4991401;28;20047;-70
2021/07/20 09:00:30;;;;;;;14.68;10.68;;;24.90;99.90;;;;;;4962160;28;20117;-68
2021/07/20 09:03:22;;;;;;;13.32;11.55;;;26.40;99.90;;;;;;4992018;28;20386;-69
2021/07/20 09:06:03;;;;;;;13.88;11.90;;;26.20;99.90;;;;;;4972908;28;20062;-69
2021/07/20 09:08:53;;;;;;;13.10;11.17;;;26.10;99.90;;;;;;4991699;28;20031;-70
2021/07/20 09:11:41;;;;;;;14.07;10.93;;;26.20;99.90;;;;;;4994483;28;20061;-69
2021/07/20 09:14:26;;;;;;;13.88;11.77;;;25.10;99.90;;;;;;5011914;28;20029;-69
2021/07/20 09:17:01;;;;;;;12.95;10.77;;;23.80;99.90;;;;;;5011046;28;20026;-69
2021/07/20 09:19:58;;;;;;;17.45;11.10;;;23.60;99.90;;;;;;5011739;28;20022;-69
2021/07/20 09:22:34;;;;;;;14.40;11.25;;;23.90;99.90;;;;;;4998080;28;20037;-69
2021/07/20 09:25:04;;;;;;;19.33;10.80;;;24.60;99.90;;;;;;5003562;28;20112;-69
2021/07/20 09:27:46;;;;;;;13.93;10.80;;;25.70;99.90;;;;;;5027060;23;20037;-68
2021/07/20 09:30:19;;;;;;;12.13;10.63;;;26.90;99.90;;;;;;5014990;28;20056;-68
2021/07/20 09:32:51;;;;;;;13.27;11.10;;;27.70;99.90;;;;;;5015663;28;20033;-72
2021/07/20 09:35:42;;;;;;;15.00;11.50;;;28.10;99.30;;;;;;5015529;28;20518;-68
2021/07/20 09:38:46;;;;;;;13.27;11.35;;;27.90;99.60;;;;;;5016127;28;20053;-69
2021/07/20 09:41:33;;;;;;;11.88;10.60;;;28.00;98.30;;;;;;4998187;28;20480;-68
2021/07/20 09:44:08;;;;;;;12.55;10.82;;;28.70;98.20;;;;;;5002641;28;20448;-69
2021/07/20 09:46:41;;;;;;;13.40;10.65;;;28.40;97.40;;;;;;5000895;28;20034;-69
2021/07/20 09:49:20;;;;;;;14.15;10.68;;;28.90;96.10;;;;;;5013885;28;20022;-68
2021/07/20 09:51:51;;;;;;;14.55;10.98;;;28.00;95.90;;;;;;5018196;28;20386;-68
2021/07/20 09:55:04;;;;;;;12.80;11.43;;;27.20;97.40;;;;;;4997617;28;20395;-68
2021/07/20 09:57:46;;;;;;;14.32;11.45;;;27.20;97.00;;;;;;5014761;28;20144;-68
2021/07/20 10:00:19;;;;;;;14.82;11.32;;;26.70;96.80;;;;;;5014907;28;20137;-68
2021/07/20 10:02:52;;;;;;;12.70;11.38;;;26.10;98.90;;;;;;5015019;28;20101;-67
2021/07/20 10:05:43;;;;;;;12.85;11.45;;;26.00;98.30;;;;;;5014144;28;20507;-68
2021/07/20 10:08:24;;;;;;;17.40;12.35;;;26.40;98.40;;;;;;5014601;28;20088;-67
2021/07/20 10:10:59;;;;;;;;;;;25.70;99.50;;;;;;5015349;28;20073;-68
2021/07/20 10:13:36;;;;;;;13.60;12.20;;;25.50;98.60;;;;;;4994934;28;19986;-69
2021/07/20 10:16:19;;;;;;;14.57;12.27;;;25.60;99.20;;;;;;5014598;28;20056;-68
2021/07/20 10:19:05;;;;;;;17.92;12.68;;;25.70;99.30;;;;;;5014693;28;20030;-68
2021/07/20 10:21:33;;;;;;;14.63;13.07;;;26.00;99.30;;;;;;5014702;28;20022;-68
2021/07/20 10:24:11;;;;;;;14.82;12.13;;;26.70;97.40;;;;;;5014301;28;20411;-69
2021/07/20 10:27:04;;;;;;;16.23;12.50;;;26.90;97.50;;;;;;5014119;28;20018;-68
2021/07/20 10:29:48;;;;;;;14.93;13.43;;;27.20;96.60;;;;;;5014382;28;20033;-69
2021/07/20 10:32:28;;;;;;;15.57;12.38;;;27.50;98.20;;;;;;5013896;28;20045;-68
2021/07/20 10:35:01;;;;;;;17.95;12.50;;;27.60;96.40;;;;;;5013666;28;20076;-68
2021/07/20 10:37:31;;;;;;;16.23;13.13;;;27.30;96.10;;;;;;5013862;28;20076;-68
2021/07/20 10:40:12;;;;;;;14.70;12.90;;;26.50;97.60;;;;;;5014086;28;20029;-67
2021/07/20 10:42:57;;;;;;;15.77;12.68;;;26.10;98.90;;;;;;5014224;28;20488;-68
2021/07/20 10:45:24;;;;;;;16.77;13.43;;;25.40;98.60;;;;;;5013591;28;20068;-68
2021/07/20 10:47:58;;;;;;;17.83;13.60;;;25.40;99.30;;;;;;5013833;28;20367;-68
2021/07/20 10:50:29;;;;;;;17.23;13.45;;;25.30;99.20;;;;;;5013517;28;20034;-70
2021/07/20 10:53:01;;;;;;;21.35;14.93;;;24.80;99.90;;;;;;5010590;28;20387;-70
2021/07/20 10:56:02;;;;;;;19.73;14.52;;;25.00;99.90;;;;;;5005219;28;20034;-70
2021/07/20 10:59:08;;;;;;;17.25;14.10;;;25.50;99.70;;;;;;5009217;28;20046;-70
2021/07/20 11:01:51;;;;;;;23.45;14.02;;;25.50;98.90;;;;;;5013471;28;20057;-71
2021/07/20 11:04:43;;;;;;;16.60;14.80;;;26.10;98.90;;;;;;5012952;28;20140;-69
2021/07/20 11:07:10;;;;;;;;;;;26.20;97.10;;;;;;5013995;28;20104;-68
2021/07/20 11:09:38;;;;;;;16.05;13.73;;;26.00;97.90;;;;;;5013618;28;19909;-67
2021/07/20 11:12:06;;;;;;;14.82;13.20;;;27.00;96.60;;;;;;5013279;28;20101;-68
2021/07/20 11:14:41;;;;;;;36.58;14.05;;;26.80;96.10;;;;;;5012332;28;20018;-68
2021/07/20 11:17:08;;;;;;;23.05;15.15;;;27.20;97.20;;;;;;5013191;28;20021;-69
2021/07/20 11:19:34;;;;;;;18.42;14.80;;;26.90;97.60;;;;;;5010516;28;20026;-67
2021/07/20 11:22:00;;;;;;;22.23;14.85;;;27.00;97.30;;;;;;5013191;28;20026;-67
2021/07/20 11:24:28;;;;;;;15.25;12.90;;;27.10;96.60;;;;;;5014163;28;20060;-68
2021/07/20 11:26:56;;;;;;;20.80;14.35;;;26.60;96.50;;;;;;5013649;28;20049;-68
2021/07/20 11:29:22;;;;;;;22.58;14.32;;;26.20;99.10;;;;;;5012742;28;20022;-68
2021/07/20 11:31:54;;;;;;;18.40;14.57;;;26.00;96.50;;;;;;5013029;28;20101;-67
2021/07/20 11:34:28;;;;;;;18.60;14.90;;;25.90;98.00;;;;;;5013684;28;20014;-68
2021/07/20 11:36:57;;;;;;;19.92;14.93;;;25.90;97.20;;;;;;5013432;28;20033;-68
2021/07/20 11:39:28;;;;;;;20.92;14.27;;;26.90;98.80;;;;;;5015948;28;20018;-68
2021/07/20 11:42:21;;;;;;;18.85;13.70;;;28.00;95.40;;;;;;4996899;28;20488;-68
2021/07/20 11:44:59;;;;;;;22.83;14.73;;;28.50;94.80;;;;;;5002037;28;20035;-69
2021/07/20 11:47:39;;;;;;;16.80;15.05;;;28.50;94.50;;;;;;5013684;28;20022;-66
2021/07/20 11:50:08;;;;;;;18.85;15.02;;;29.10;94.30;;;;;;5008689;28;20026;-67
2021/07/20 11:52:46;;;;;;;18.92;15.43;;;29.60;92.90;;;;;;5012655;28;20042;-66
2021/07/20 11:55:34;;;;;;;23.92;14.93;;;30.10;92.10;;;;;;5012079;28;20672;-65
2021/07/20 11:58:40;;;;;;;22.95;15.10;;;29.30;92.20;;;;;;5012822;28;20044;-65
2021/07/20 12:01:44;;;;;;;19.45;14.65;;;28.60;93.20;;;;;;5002661;28;20349;-67
2021/07/20 12:04:55;;;;;;;18.75;13.70;;;28.70;92.70;;;;;;5012603;28;20018;-67
2021/07/20 12:07:56;;;;;;;16.25;13.52;;;28.30;92.70;;;;;;5012003;28;20026;-67
2021/07/20 12:10:25;;;;;;;18.05;14.65;;;27.70;95.20;;;;;;4998372;28;20088;-67
2021/07/20 12:12:54;;;;;;;18.73;15.48;;;27.40;94.50;;;;;;5012049;28;20053;-67
2021/07/20 12:15:22;;;;;;;21.88;14.63;;;27.10;95.60;;;;;;5010788;28;20048;-67
2021/07/20 12:17:50;;;;;;;20.35;15.27;;;26.80;94.50;;;;;;5012363;28;20022;-68
2021/07/20 12:20:20;;;;;;;16.95;15.13;;;26.40;95.60;;;;;;4994716;28;20025;-69
2021/07/20 12:22:48;;;;;;;20.60;14.77;;;26.10;95.70;;;;;;5012003;28;20026;-68
2021/07/20 12:25:14;;;;;;;21.10;15.50;;;26.20;96.60;;;;;;5011531;28;20022;-68
2021/07/20 12:27:41;;;;;;;19.02;15.73;;;26.80;96.40;;;;;;5011639;28;20045;-67
2021/07/20 12:30:12;;;;;;;20.75;16.23;;;27.30;94.90;;;;;;5011678;28;20026;-66
2021/07/20 12:32:39;;;;;;;18.75;15.80;;;27.40;94.60;;;;;;5012029;28;20037;-67
2021/07/20 12:35:06;;;;;;;25.08;16.80;;;27.20;95.50;;;;;;5011253;28;20037;-67
2021/07/20 12:37:32;;;;;;;20.80;16.20;;;26.70;93.90;;;;;;5011910;28;20113;-67
2021/07/20 12:39:59;;;;;;;26.55;16.70;;;26.50;94.80;;;;;;5011601;28;20500;-67
2021/07/20 12:42:39;;;;;;;17.25;15.38;;;27.20;94.80;;;;;;5011540;28;20026;-68
2021/07/20 12:45:14;;;;;;;24.23;17.23;;;27.60;93.60;;;;;;4991434;28;20152;-67
2021/07/20 12:47:47;;;;;;;22.40;17.38;;;27.20;93.90;;;;;;4992213;28;20052;-66
2021/07/20 12:50:19;;;;;;;23.50;17.33;;;27.20;95.70;;;;;;5011993;28;20108;-67
2021/07/20 12:52:46;;;;;;;;;;;27.60;95.70;;;;;;5012247;28;20068;-66
2021/07/20 12:55:20;;;;;;;22.58;17.25;;;27.60;93.50;;;;;;5018051;28;19905;-67